sensor_id;sensor_type;location;lat;lon;timestamp;P1;durP1;ratioP1;P2;durP2;ratioP2
41885;SDS011;27567;43.084;25.616;2023-03-05T00:00:16;24.88;;;10.93;;
41885;SDS011;27567;43.084;25.616;2023-03-05T00:03:00;28.40;;;11.90;;
41885;SDS011;27567;43.084;25.616;2023-03-05T00:05:44;26.50;;;11.70;;
41885;SDS011;27567;43.084;25.616;2023-03-05T00:08:28;27.55;;;10.95;;
41885;SDS011;27567;43.084;25.616;2023-03-05T00:11:12;28.95;;;10.98;;
41885;SDS011;27567;43.084;25.616;2023-03-05T00:13:56;21.13;;;9.95;;
41885;SDS011;27567;43.084;25.616;2023-03-05T00:16:40;25.20;;;10.98;;
41885;SDS011;27567;43.084;25.616;2023-03-05T00:19:24;22.02;;;10.25;;
41885;SDS011;27567;43.084;25.616;2023-03-05T00:22:08;21.10;;;10.90;;
41885;SDS011;27567;43.084;25.616;2023-03-05T00:24:52;24.23;;;10.85;;
41885;SDS011;27567;43.084;25.616;2023-03-05T00:27:35;21.08;;;10.27;;
41885;SDS011;27567;43.084;25.616;2023-03-05T00:30:19;21.58;;;10.10;;
41885;SDS011;27567;43.084;25.616;2023-03-05T00:33:03;25.35;;;11.10;;
41885;SDS011;27567;43.084;25.616;2023-03-05T00:35:47;24.35;;;11.18;;
41885;SDS011;27567;43.084;25.616;2023-03-05T00:38:31;23.65;;;10.48;;
41885;SDS011;27567;43.084;25.616;2023-03-05T00:41:16;21.75;;;9.43;;
41885;SDS011;27567;43.084;25.616;2023-03-05T00:43:59;30.63;;;11.13;;
41885;SDS011;27567;43.084;25.616;2023-03-05T00:46:43;19.98;;;9.43;;
41885;SDS011;27567;43.084;25.616;2023-03-05T00:49:27;26.40;;;10.27;;
41885;SDS011;27567;43.084;25.616;2023-03-05T00:52:11;22.20;;;9.75;;
41885;SDS011;27567;43.084;25.616;2023-03-05T00:54:55;28.95;;;10.85;;
41885;SDS011;27567;43.084;25.616;2023-03-05T00:57:39;22.75;;;9.55;;
41885;SDS011;27567;43.084;25.616;2023-03-05T01:00:23;25.67;;;9.90;;
41885;SDS011;27567;43.084;25.616;2023-03-05T01:03:07;26.13;;;10.65;;
41885;SDS011;27567;43.084;25.616;2023-03-05T01:05:51;27.73;;;11.38;;
41885;SDS011;27567;43.084;25.616;2023-03-05T01:08:35;30.30;;;11.70;;
41885;SDS011;27567;43.084;25.616;2023-03-05T01:11:19;24.52;;;10.52;;
41885;SDS011;27567;43.084;25.616;2023-03-05T01:14:03;19.98;;;9.85;;
41885;SDS011;27567;43.084;25.616;2023-03-05T01:16:47;28.33;;;10.82;;
41885;SDS011;27567;43.084;25.616;2023-03-05T01:19:31;23.13;;;11.35;;
41885;SDS011;27567;43.084;25.616;2023-03-05T01:22:15;28.13;;;11.80;;
41885;SDS011;27567;43.084;25.616;2023-03-05T01:24:59;26.65;;;11.18;;
41885;SDS011;27567;43.084;25.616;2023-03-05T01:27:44;22.65;;;9.50;;
41885;SDS011;27567;43.084;25.616;2023-03-05T01:30:28;24.77;;;11.10;;
41885;SDS011;27567;43.084;25.616;2023-03-05T01:33:12;24.42;;;9.82;;
41885;SDS011;27567;43.084;25.616;2023-03-05T01:35:56;29.70;;;11.75;;
41885;SDS011;27567;43.084;25.616;2023-03-05T01:38:40;34.40;;;12.27;;
41885;SDS011;27567;43.084;25.616;2023-03-05T01:41:24;28.60;;;11.32;;
41885;SDS011;27567;43.084;25.616;2023-03-05T01:44:26;27.73;;;11.52;;
41885;SDS011;27567;43.084;25.616;2023-03-05T01:47:10;26.13;;;11.48;;
41885;SDS011;27567;43.084;25.616;2023-03-05T01:49:53;27.58;;;11.13;;
41885;SDS011;27567;43.084;25.616;2023-03-05T01:52:39;29.67;;;12.02;;
41885;SDS011;27567;43.084;25.616;2023-03-05T01:55:26;26.13;;;11.85;;
41885;SDS011;27567;43.084;25.616;2023-03-05T01:58:11;29.00;;;11.05;;
41885;SDS011;27567;43.084;25.616;2023-03-05T02:00:56;29.00;;;11.60;;
41885;SDS011;27567;43.084;25.616;2023-03-05T02:03:40;28.45;;;12.18;;
41885;SDS011;27567;43.084;25.616;2023-03-05T02:06:23;27.85;;;11.38;;
41885;SDS011;27567;43.084;25.616;2023-03-05T02:09:08;29.83;;;11.77;;
41885;SDS011;27567;43.084;25.616;2023-03-05T02:11:52;26.45;;;11.57;;
41885;SDS011;27567;43.084;25.616;2023-03-05T02:14:36;25.83;;;12.23;;
41885;SDS011;27567;43.084;25.616;2023-03-05T02:17:20;27.38;;;11.85;;
41885;SDS011;27567;43.084;25.616;2023-03-05T02:20:09;27.38;;;12.13;;
41885;SDS011;27567;43.084;25.616;2023-03-05T02:22:53;32.85;;;12.45;;
41885;SDS011;27567;43.084;25.616;2023-03-05T02:25:37;30.15;;;10.90;;
41885;SDS011;27567;43.084;25.616;2023-03-05T02:28:22;32.47;;;12.32;;
41885;SDS011;27567;43.084;25.616;2023-03-05T02:31:08;25.75;;;10.85;;
41885;SDS011;27567;43.084;25.616;2023-03-05T02:33:52;28.10;;;10.88;;
41885;SDS011;27567;43.084;25.616;2023-03-05T02:36:36;25.08;;;10.65;;
41885;SDS011;27567;43.084;25.616;2023-03-05T02:39:20;27.75;;;12.30;;
41885;SDS011;27567;43.084;25.616;2023-03-05T02:42:04;27.05;;;10.70;;
41885;SDS011;27567;43.084;25.616;2023-03-05T02:44:48;27.13;;;12.45;;
41885;SDS011;27567;43.084;25.616;2023-03-05T02:47:32;30.10;;;12.43;;
41885;SDS011;27567;43.084;25.616;2023-03-05T02:50:16;33.85;;;12.50;;
41885;SDS011;27567;43.084;25.616;2023-03-05T02:53:00;31.70;;;11.50;;
41885;SDS011;27567;43.084;25.616;2023-03-05T02:55:47;30.50;;;12.93;;
41885;SDS011;27567;43.084;25.616;2023-03-05T02:58:31;26.48;;;11.45;;
41885;SDS011;27567;43.084;25.616;2023-03-05T03:01:15;26.65;;;11.32;;
41885;SDS011;27567;43.084;25.616;2023-03-05T03:03:58;33.80;;;11.75;;
41885;SDS011;27567;43.084;25.616;2023-03-05T03:06:42;25.27;;;11.73;;
41885;SDS011;27567;43.084;25.616;2023-03-05T03:09:26;28.95;;;12.50;;
41885;SDS011;27567;43.084;25.616;2023-03-05T03:12:10;31.63;;;14.40;;
41885;SDS011;27567;43.084;25.616;2023-03-05T03:14:54;30.88;;;11.63;;
41885;SDS011;27567;43.084;25.616;2023-03-05T03:17:38;27.27;;;10.80;;
41885;SDS011;27567;43.084;25.616;2023-03-05T03:20:22;32.03;;;13.00;;
41885;SDS011;27567;43.084;25.616;2023-03-05T03:23:06;28.02;;;11.63;;
41885;SDS011;27567;43.084;25.616;2023-03-05T03:25:50;32.83;;;12.18;;
41885;SDS011;27567;43.084;25.616;2023-03-05T03:28:34;32.08;;;12.23;;
41885;SDS011;27567;43.084;25.616;2023-03-05T03:31:18;25.83;;;13.40;;
41885;SDS011;27567;43.084;25.616;2023-03-05T03:34:02;28.05;;;11.65;;
41885;SDS011;27567;43.084;25.616;2023-03-05T03:36:46;29.27;;;12.93;;
41885;SDS011;27567;43.084;25.616;2023-03-05T03:39:30;28.05;;;12.88;;
41885;SDS011;27567;43.084;25.616;2023-03-05T03:42:18;29.00;;;12.23;;
41885;SDS011;27567;43.084;25.616;2023-03-05T03:45:02;36.17;;;13.27;;
41885;SDS011;27567;43.084;25.616;2023-03-05T03:47:47;24.90;;;11.60;;
41885;SDS011;27567;43.084;25.616;2023-03-05T03:50:31;31.33;;;11.65;;
41885;SDS011;27567;43.084;25.616;2023-03-05T03:53:15;36.42;;;12.57;;
41885;SDS011;27567;43.084;25.616;2023-03-05T03:55:59;35.03;;;14.27;;
41885;SDS011;27567;43.084;25.616;2023-03-05T03:58:43;28.48;;;13.13;;
41885;SDS011;27567;43.084;25.616;2023-03-05T04:01:27;28.55;;;12.15;;
41885;SDS011;27567;43.084;25.616;2023-03-05T04:04:11;29.02;;;13.75;;
41885;SDS011;27567;43.084;25.616;2023-03-05T04:06:56;33.30;;;13.63;;
41885;SDS011;27567;43.084;25.616;2023-03-05T04:09:39;33.03;;;13.63;;
41885;SDS011;27567;43.084;25.616;2023-03-05T04:12:23;30.58;;;12.27;;
41885;SDS011;27567;43.084;25.616;2023-03-05T04:15:08;42.53;;;13.90;;
41885;SDS011;27567;43.084;25.616;2023-03-05T04:17:52;28.80;;;13.18;;
41885;SDS011;27567;43.084;25.616;2023-03-05T04:20:36;34.83;;;13.55;;
41885;SDS011;27567;43.084;25.616;2023-03-05T04:23:20;34.20;;;13.30;;
41885;SDS011;27567;43.084;25.616;2023-03-05T04:26:04;31.25;;;13.38;;
41885;SDS011;27567;43.084;25.616;2023-03-05T04:28:48;31.25;;;13.30;;
41885;SDS011;27567;43.084;25.616;2023-03-05T04:31:32;34.67;;;13.77;;
41885;SDS011;27567;43.084;25.616;2023-03-05T04:34:16;34.95;;;13.00;;
41885;SDS011;27567;43.084;25.616;2023-03-05T04:37:00;30.35;;;13.63;;
41885;SDS011;27567;43.084;25.616;2023-03-05T04:39:44;33.55;;;12.75;;
41885;SDS011;27567;43.084;25.616;2023-03-05T04:42:27;34.65;;;12.68;;
41885;SDS011;27567;43.084;25.616;2023-03-05T04:45:11;31.50;;;13.45;;
41885;SDS011;27567;43.084;25.616;2023-03-05T04:47:55;35.53;;;14.07;;
41885;SDS011;27567;43.084;25.616;2023-03-05T04:50:39;31.58;;;11.32;;
41885;SDS011;27567;43.084;25.616;2023-03-05T04:53:23;32.17;;;12.75;;
41885;SDS011;27567;43.084;25.616;2023-03-05T04:56:07;34.65;;;14.20;;
41885;SDS011;27567;43.084;25.616;2023-03-05T04:58:51;46.47;;;14.65;;
41885;SDS011;27567;43.084;25.616;2023-03-05T05:01:35;28.55;;;12.90;;
41885;SDS011;27567;43.084;25.616;2023-03-05T05:04:19;33.40;;;12.77;;
41885;SDS011;27567;43.084;25.616;2023-03-05T05:07:03;36.70;;;13.68;;
41885;SDS011;27567;43.084;25.616;2023-03-05T05:09:47;41.53;;;14.00;;
41885;SDS011;27567;43.084;25.616;2023-03-05T05:12:31;36.58;;;14.18;;
41885;SDS011;27567;43.084;25.616;2023-03-05T05:15:15;37.13;;;13.32;;
41885;SDS011;27567;43.084;25.616;2023-03-05T05:17:59;28.63;;;12.02;;
41885;SDS011;27567;43.084;25.616;2023-03-05T05:20:43;25.77;;;12.10;;
41885;SDS011;27567;43.084;25.616;2023-03-05T05:23:27;34.60;;;13.30;;
41885;SDS011;27567;43.084;25.616;2023-03-05T05:26:11;37.35;;;14.20;;
41885;SDS011;27567;43.084;25.616;2023-03-05T05:28:57;36.28;;;13.52;;
41885;SDS011;27567;43.084;25.616;2023-03-05T05:31:41;40.78;;;15.30;;
41885;SDS011;27567;43.084;25.616;2023-03-05T05:34:25;33.72;;;12.50;;
41885;SDS011;27567;43.084;25.616;2023-03-05T05:37:09;37.78;;;14.52;;
41885;SDS011;27567;43.084;25.616;2023-03-05T05:39:52;32.47;;;13.38;;
41885;SDS011;27567;43.084;25.616;2023-03-05T05:42:36;35.33;;;14.30;;
41885;SDS011;27567;43.084;25.616;2023-03-05T05:45:20;31.88;;;14.73;;
41885;SDS011;27567;43.084;25.616;2023-03-05T05:48:04;40.20;;;15.23;;
41885;SDS011;27567;43.084;25.616;2023-03-05T05:50:48;36.25;;;14.48;;
41885;SDS011;27567;43.084;25.616;2023-03-05T05:53:32;29.00;;;12.40;;
41885;SDS011;27567;43.084;25.616;2023-03-05T05:56:16;35.15;;;12.57;;
41885;SDS011;27567;43.084;25.616;2023-03-05T05:59:00;31.88;;;13.38;;
41885;SDS011;27567;43.084;25.616;2023-03-05T06:01:44;33.78;;;12.80;;
41885;SDS011;27567;43.084;25.616;2023-03-05T06:04:28;33.20;;;13.95;;
41885;SDS011;27567;43.084;25.616;2023-03-05T06:07:12;38.78;;;13.15;;
41885;SDS011;27567;43.084;25.616;2023-03-05T06:09:56;32.30;;;13.48;;
41885;SDS011;27567;43.084;25.616;2023-03-05T06:12:40;29.90;;;13.23;;
41885;SDS011;27567;43.084;25.616;2023-03-05T06:15:24;34.58;;;14.82;;
41885;SDS011;27567;43.084;25.616;2023-03-05T06:18:08;41.22;;;14.38;;
41885;SDS011;27567;43.084;25.616;2023-03-05T06:23:39;28.95;;;12.75;;
41885;SDS011;27567;43.084;25.616;2023-03-05T06:26:23;28.10;;;13.50;;
41885;SDS011;27567;43.084;25.616;2023-03-05T06:29:07;31.23;;;13.38;;
41885;SDS011;27567;43.084;25.616;2023-03-05T06:31:51;29.33;;;12.80;;
41885;SDS011;27567;43.084;25.616;2023-03-05T06:34:35;27.23;;;12.05;;
41885;SDS011;27567;43.084;25.616;2023-03-05T06:37:19;32.50;;;13.25;;
41885;SDS011;27567;43.084;25.616;2023-03-05T06:40:03;29.70;;;12.05;;
41885;SDS011;27567;43.084;25.616;2023-03-05T06:42:47;26.67;;;12.40;;
41885;SDS011;27567;43.084;25.616;2023-03-05T06:45:32;29.83;;;12.45;;
41885;SDS011;27567;43.084;25.616;2023-03-05T06:48:16;31.50;;;13.40;;
41885;SDS011;27567;43.084;25.616;2023-03-05T06:51:00;32.85;;;13.32;;
41885;SDS011;27567;43.084;25.616;2023-03-05T06:53:44;44.95;;;14.75;;
41885;SDS011;27567;43.084;25.616;2023-03-05T06:56:29;30.15;;;13.32;;
41885;SDS011;27567;43.084;25.616;2023-03-05T06:59:13;30.45;;;12.13;;
41885;SDS011;27567;43.084;25.616;2023-03-05T07:01:57;27.85;;;12.55;;
41885;SDS011;27567;43.084;25.616;2023-03-05T07:04:41;24.60;;;11.48;;
41885;SDS011;27567;43.084;25.616;2023-03-05T07:07:25;28.33;;;12.77;;
41885;SDS011;27567;43.084;25.616;2023-03-05T07:10:09;30.90;;;13.88;;
41885;SDS011;27567;43.084;25.616;2023-03-05T07:12:54;29.40;;;12.57;;
41885;SDS011;27567;43.084;25.616;2023-03-05T07:15:38;31.67;;;12.50;;
41885;SDS011;27567;43.084;25.616;2023-03-05T07:18:22;33.45;;;13.77;;
41885;SDS011;27567;43.084;25.616;2023-03-05T07:21:07;34.13;;;13.45;;
41885;SDS011;27567;43.084;25.616;2023-03-05T07:23:54;27.33;;;12.55;;
41885;SDS011;27567;43.084;25.616;2023-03-05T07:26:39;30.65;;;14.27;;
41885;SDS011;27567;43.084;25.616;2023-03-05T07:29:24;27.75;;;13.00;;
41885;SDS011;27567;43.084;25.616;2023-03-05T07:32:08;23.83;;;12.23;;
41885;SDS011;27567;43.084;25.616;2023-03-05T07:34:52;31.90;;;13.45;;
41885;SDS011;27567;43.084;25.616;2023-03-05T07:37:36;30.35;;;14.02;;
41885;SDS011;27567;43.084;25.616;2023-03-05T07:40:20;29.73;;;13.77;;
41885;SDS011;27567;43.084;25.616;2023-03-05T07:43:04;27.48;;;12.65;;
41885;SDS011;27567;43.084;25.616;2023-03-05T07:45:48;29.83;;;13.20;;
41885;SDS011;27567;43.084;25.616;2023-03-05T07:48:33;36.10;;;13.38;;
41885;SDS011;27567;43.084;25.616;2023-03-05T07:51:17;32.97;;;14.63;;
41885;SDS011;27567;43.084;25.616;2023-03-05T07:54:02;31.30;;;15.63;;
41885;SDS011;27567;43.084;25.616;2023-03-05T07:56:46;31.13;;;13.25;;
41885;SDS011;27567;43.084;25.616;2023-03-05T07:59:31;34.47;;;13.73;;
41885;SDS011;27567;43.084;25.616;2023-03-05T08:02:15;31.83;;;13.85;;
41885;SDS011;27567;43.084;25.616;2023-03-05T08:04:58;33.78;;;15.30;;
41885;SDS011;27567;43.084;25.616;2023-03-05T08:07:42;29.05;;;13.57;;
41885;SDS011;27567;43.084;25.616;2023-03-05T08:10:26;26.23;;;13.82;;
41885;SDS011;27567;43.084;25.616;2023-03-05T08:13:10;33.80;;;14.00;;
41885;SDS011;27567;43.084;25.616;2023-03-05T08:15:55;30.55;;;14.07;;
41885;SDS011;27567;43.084;25.616;2023-03-05T08:18:39;32.30;;;14.50;;
41885;SDS011;27567;43.084;25.616;2023-03-05T08:21:24;30.63;;;14.23;;
41885;SDS011;27567;43.084;25.616;2023-03-05T08:24:16;34.45;;;14.75;;
41885;SDS011;27567;43.084;25.616;2023-03-05T08:27:00;33.60;;;15.23;;
41885;SDS011;27567;43.084;25.616;2023-03-05T08:29:44;31.98;;;14.82;;
41885;SDS011;27567;43.084;25.616;2023-03-05T08:32:27;34.20;;;13.57;;
41885;SDS011;27567;43.084;25.616;2023-03-05T08:35:11;30.38;;;14.07;;
41885;SDS011;27567;43.084;25.616;2023-03-05T08:37:55;29.08;;;13.52;;
41885;SDS011;27567;43.084;25.616;2023-03-05T08:40:39;32.70;;;15.55;;
41885;SDS011;27567;43.084;25.616;2023-03-05T08:43:23;32.75;;;14.27;;
41885;SDS011;27567;43.084;25.616;2023-03-05T08:46:08;30.95;;;15.25;;
41885;SDS011;27567;43.084;25.616;2023-03-05T08:48:52;29.80;;;14.73;;
41885;SDS011;27567;43.084;25.616;2023-03-05T08:51:36;31.67;;;15.23;;
41885;SDS011;27567;43.084;25.616;2023-03-05T08:54:20;33.28;;;15.05;;
41885;SDS011;27567;43.084;25.616;2023-03-05T08:57:04;35.67;;;15.77;;
41885;SDS011;27567;43.084;25.616;2023-03-05T08:59:48;37.25;;;15.18;;
41885;SDS011;27567;43.084;25.616;2023-03-05T09:02:32;30.88;;;14.07;;
41885;SDS011;27567;43.084;25.616;2023-03-05T09:05:16;31.60;;;14.65;;
41885;SDS011;27567;43.084;25.616;2023-03-05T09:08:01;33.03;;;14.68;;
41885;SDS011;27567;43.084;25.616;2023-03-05T09:10:45;37.03;;;15.80;;
41885;SDS011;27567;43.084;25.616;2023-03-05T09:13:29;35.00;;;15.30;;
41885;SDS011;27567;43.084;25.616;2023-03-05T09:16:14;31.85;;;13.95;;
41885;SDS011;27567;43.084;25.616;2023-03-05T09:18:58;32.63;;;14.50;;
41885;SDS011;27567;43.084;25.616;2023-03-05T09:21:42;26.33;;;10.00;;
41885;SDS011;27567;43.084;25.616;2023-03-05T09:24:26;33.42;;;14.68;;
41885;SDS011;27567;43.084;25.616;2023-03-05T09:27:09;29.42;;;14.13;;
41885;SDS011;27567;43.084;25.616;2023-03-05T09:29:53;30.55;;;15.38;;
41885;SDS011;27567;43.084;25.616;2023-03-05T09:32:38;32.25;;;15.25;;
41885;SDS011;27567;43.084;25.616;2023-03-05T09:35:22;32.10;;;14.85;;
41885;SDS011;27567;43.084;25.616;2023-03-05T09:38:06;30.65;;;15.20;;
41885;SDS011;27567;43.084;25.616;2023-03-05T09:43:53;28.25;;;13.88;;
41885;SDS011;27567;43.084;25.616;2023-03-05T09:46:50;32.55;;;13.90;;
41885;SDS011;27567;43.084;25.616;2023-03-05T09:52:41;28.02;;;13.98;;
41885;SDS011;27567;43.084;25.616;2023-03-05T09:55:36;31.55;;;14.77;;
41885;SDS011;27567;43.084;25.616;2023-03-05T10:01:16;32.70;;;15.68;;
41885;SDS011;27567;43.084;25.616;2023-03-05T10:06:55;30.15;;;15.40;;
41885;SDS011;27567;43.084;25.616;2023-03-05T10:15:11;29.65;;;13.35;;
41885;SDS011;27567;43.084;25.616;2023-03-05T10:18:13;30.98;;;15.30;;
41885;SDS011;27567;43.084;25.616;2023-03-05T10:21:00;25.63;;;12.45;;
41885;SDS011;27567;43.084;25.616;2023-03-05T10:26:57;27.75;;;13.98;;
41885;SDS011;27567;43.084;25.616;2023-03-05T10:32:30;25.75;;;13.88;;
41885;SDS011;27567;43.084;25.616;2023-03-05T10:35:30;23.77;;;10.68;;
41885;SDS011;27567;43.084;25.616;2023-03-05T10:44:08;22.48;;;13.48;;
41885;SDS011;27567;43.084;25.616;2023-03-05T10:46:54;24.73;;;14.25;;
41885;SDS011;27567;43.084;25.616;2023-03-05T10:49:41;20.92;;;11.48;;
41885;SDS011;27567;43.084;25.616;2023-03-05T10:52:33;24.88;;;12.02;;
41885;SDS011;27567;43.084;25.616;2023-03-05T10:55:19;23.25;;;11.93;;
41885;SDS011;27567;43.084;25.616;2023-03-05T10:58:08;14.07;;;7.63;;
41885;SDS011;27567;43.084;25.616;2023-03-05T11:01:00;23.10;;;12.50;;
41885;SDS011;27567;43.084;25.616;2023-03-05T11:06:42;21.60;;;11.00;;
41885;SDS011;27567;43.084;25.616;2023-03-05T11:09:29;33.55;;;11.75;;
41885;SDS011;27567;43.084;25.616;2023-03-05T11:12:16;21.67;;;11.43;;
41885;SDS011;27567;43.084;25.616;2023-03-05T11:17:46;25.08;;;12.40;;
41885;SDS011;27567;43.084;25.616;2023-03-05T11:20:35;25.50;;;11.23;;
41885;SDS011;27567;43.084;25.616;2023-03-05T11:26:22;25.30;;;11.85;;
41885;SDS011;27567;43.084;25.616;2023-03-05T11:29:12;26.17;;;12.60;;
41885;SDS011;27567;43.084;25.616;2023-03-05T11:32:19;22.95;;;12.35;;
41885;SDS011;27567;43.084;25.616;2023-03-05T11:35:04;24.13;;;12.63;;
41885;SDS011;27567;43.084;25.616;2023-03-05T11:38:05;23.05;;;11.63;;
41885;SDS011;27567;43.084;25.616;2023-03-05T11:40:50;24.35;;;12.38;;
41885;SDS011;27567;43.084;25.616;2023-03-05T11:43:37;19.73;;;10.27;;
41885;SDS011;27567;43.084;25.616;2023-03-05T11:46:24;22.25;;;10.57;;
41885;SDS011;27567;43.084;25.616;2023-03-05T11:49:10;19.77;;;11.55;;
41885;SDS011;27567;43.084;25.616;2023-03-05T11:55:05;18.70;;;11.15;;
41885;SDS011;27567;43.084;25.616;2023-03-05T12:00:44;21.08;;;11.45;;
41885;SDS011;27567;43.084;25.616;2023-03-05T12:03:29;18.92;;;10.73;;
41885;SDS011;27567;43.084;25.616;2023-03-05T12:06:16;19.80;;;9.80;;
41885;SDS011;27567;43.084;25.616;2023-03-05T12:09:03;20.98;;;9.93;;
41885;SDS011;27567;43.084;25.616;2023-03-05T12:11:51;20.23;;;9.82;;
41885;SDS011;27567;43.084;25.616;2023-03-05T12:14:55;19.17;;;10.30;;
41885;SDS011;27567;43.084;25.616;2023-03-05T12:17:43;21.02;;;11.05;;
41885;SDS011;27567;43.084;25.616;2023-03-05T12:23:18;19.85;;;10.88;;
41885;SDS011;27567;43.084;25.616;2023-03-05T12:26:03;22.08;;;11.50;;
41885;SDS011;27567;43.084;25.616;2023-03-05T12:28:53;21.17;;;9.35;;
41885;SDS011;27567;43.084;25.616;2023-03-05T12:31:37;21.45;;;9.95;;
41885;SDS011;27567;43.084;25.616;2023-03-05T12:34:35;17.48;;;9.43;;
41885;SDS011;27567;43.084;25.616;2023-03-05T12:43:04;16.60;;;8.80;;
41885;SDS011;27567;43.084;25.616;2023-03-05T12:45:48;14.25;;;8.13;;
41885;SDS011;27567;43.084;25.616;2023-03-05T12:48:41;16.08;;;7.97;;
41885;SDS011;27567;43.084;25.616;2023-03-05T12:51:31;16.67;;;7.90;;
41885;SDS011;27567;43.084;25.616;2023-03-05T12:57:04;14.73;;;7.50;;
41885;SDS011;27567;43.084;25.616;2023-03-05T12:59:57;18.15;;;8.52;;
41885;SDS011;27567;43.084;25.616;2023-03-05T13:02:43;15.80;;;8.07;;
41885;SDS011;27567;43.084;25.616;2023-03-05T13:05:31;17.25;;;9.30;;
41885;SDS011;27567;43.084;25.616;2023-03-05T13:08:20;13.80;;;7.07;;
41885;SDS011;27567;43.084;25.616;2023-03-05T13:11:11;18.77;;;8.75;;
41885;SDS011;27567;43.084;25.616;2023-03-05T13:14:02;15.70;;;8.10;;
41885;SDS011;27567;43.084;25.616;2023-03-05T13:16:52;25.52;;;7.90;;
41885;SDS011;27567;43.084;25.616;2023-03-05T13:19:36;16.40;;;8.85;;
41885;SDS011;27567;43.084;25.616;2023-03-05T13:22:30;16.00;;;8.10;;
41885;SDS011;27567;43.084;25.616;2023-03-05T13:25:17;18.40;;;7.88;;
41885;SDS011;27567;43.084;25.616;2023-03-05T13:28:03;13.50;;;7.22;;
41885;SDS011;27567;43.084;25.616;2023-03-05T13:33:55;16.13;;;8.65;;
41885;SDS011;27567;43.084;25.616;2023-03-05T13:37:05;14.75;;;7.28;;
41885;SDS011;27567;43.084;25.616;2023-03-05T13:42:35;17.27;;;8.70;;
41885;SDS011;27567;43.084;25.616;2023-03-05T13:48:14;17.20;;;8.43;;
41885;SDS011;27567;43.084;25.616;2023-03-05T13:51:01;16.42;;;8.45;;
41885;SDS011;27567;43.084;25.616;2023-03-05T13:53:49;18.20;;;9.27;;
41885;SDS011;27567;43.084;25.616;2023-03-05T13:56:33;22.00;;;10.45;;
41885;SDS011;27567;43.084;25.616;2023-03-05T13:59:19;18.33;;;9.80;;
41885;SDS011;27567;43.084;25.616;2023-03-05T14:02:12;16.20;;;8.07;;
41885;SDS011;27567;43.084;25.616;2023-03-05T14:04:57;21.75;;;8.43;;
41885;SDS011;27567;43.084;25.616;2023-03-05T14:07:42;21.70;;;9.60;;
41885;SDS011;27567;43.084;25.616;2023-03-05T14:10:35;18.50;;;10.35;;
41885;SDS011;27567;43.084;25.616;2023-03-05T14:13:20;25.38;;;11.13;;
41885;SDS011;27567;43.084;25.616;2023-03-05T14:16:14;21.17;;;8.32;;
41885;SDS011;27567;43.084;25.616;2023-03-05T14:19:05;21.95;;;9.75;;
41885;SDS011;27567;43.084;25.616;2023-03-05T14:22:26;16.25;;;7.68;;
41885;SDS011;27567;43.084;25.616;2023-03-05T14:31:00;18.85;;;9.63;;
41885;SDS011;27567;43.084;25.616;2023-03-05T14:33:44;21.10;;;9.48;;
41885;SDS011;27567;43.084;25.616;2023-03-05T14:36:29;18.95;;;9.63;;
41885;SDS011;27567;43.084;25.616;2023-03-05T14:39:29;16.30;;;9.18;;
41885;SDS011;27567;43.084;25.616;2023-03-05T14:45:14;21.55;;;9.77;;
41885;SDS011;27567;43.084;25.616;2023-03-05T14:47:59;17.77;;;9.23;;
41885;SDS011;27567;43.084;25.616;2023-03-05T14:50:50;17.73;;;9.68;;
41885;SDS011;27567;43.084;25.616;2023-03-05T14:53:39;19.65;;;8.05;;
41885;SDS011;27567;43.084;25.616;2023-03-05T14:56:25;22.90;;;8.20;;
41885;SDS011;27567;43.084;25.616;2023-03-05T14:59:10;29.77;;;10.80;;
41885;SDS011;27567;43.084;25.616;2023-03-05T15:01:54;17.20;;;8.75;;
41885;SDS011;27567;43.084;25.616;2023-03-05T15:04:38;17.38;;;8.63;;
41885;SDS011;27567;43.084;25.616;2023-03-05T15:07:28;16.63;;;7.75;;
41885;SDS011;27567;43.084;25.616;2023-03-05T15:10:20;20.88;;;8.85;;
41885;SDS011;27567;43.084;25.616;2023-03-05T15:13:07;18.55;;;8.45;;
41885;SDS011;27567;43.084;25.616;2023-03-05T15:15:51;17.77;;;9.75;;
41885;SDS011;27567;43.084;25.616;2023-03-05T15:18:35;17.30;;;8.38;;
41885;SDS011;27567;43.084;25.616;2023-03-05T15:21:19;13.40;;;7.18;;
41885;SDS011;27567;43.084;25.616;2023-03-05T15:24:04;18.55;;;8.68;;
41885;SDS011;27567;43.084;25.616;2023-03-05T15:26:47;15.85;;;7.57;;
41885;SDS011;27567;43.084;25.616;2023-03-05T15:29:32;22.98;;;7.72;;
41885;SDS011;27567;43.084;25.616;2023-03-05T15:32:18;16.90;;;7.10;;
41885;SDS011;27567;43.084;25.616;2023-03-05T15:35:05;14.05;;;6.47;;
41885;SDS011;27567;43.084;25.616;2023-03-05T15:37:49;14.52;;;7.63;;
41885;SDS011;27567;43.084;25.616;2023-03-05T15:40:33;13.82;;;6.57;;
41885;SDS011;27567;43.084;25.616;2023-03-05T15:43:17;16.83;;;6.68;;
41885;SDS011;27567;43.084;25.616;2023-03-05T15:46:03;13.68;;;6.75;;
41885;SDS011;27567;43.084;25.616;2023-03-05T15:48:47;12.15;;;6.57;;
41885;SDS011;27567;43.084;25.616;2023-03-05T15:51:32;21.27;;;6.60;;
41885;SDS011;27567;43.084;25.616;2023-03-05T15:54:17;13.52;;;6.55;;
41885;SDS011;27567;43.084;25.616;2023-03-05T15:57:03;14.50;;;6.82;;
41885;SDS011;27567;43.084;25.616;2023-03-05T15:59:50;15.13;;;7.13;;
41885;SDS011;27567;43.084;25.616;2023-03-05T16:02:34;15.65;;;6.88;;
41885;SDS011;27567;43.084;25.616;2023-03-05T16:05:17;12.80;;;6.78;;
41885;SDS011;27567;43.084;25.616;2023-03-05T16:08:02;14.18;;;6.72;;
41885;SDS011;27567;43.084;25.616;2023-03-05T16:10:45;15.32;;;6.78;;
41885;SDS011;27567;43.084;25.616;2023-03-05T16:13:29;10.93;;;5.35;;
41885;SDS011;27567;43.084;25.616;2023-03-05T16:16:15;14.20;;;5.53;;
41885;SDS011;27567;43.084;25.616;2023-03-05T16:18:59;11.48;;;6.13;;
41885;SDS011;27567;43.084;25.616;2023-03-05T16:21:43;14.68;;;6.35;;
41885;SDS011;27567;43.084;25.616;2023-03-05T16:24:26;16.50;;;5.22;;
41885;SDS011;27567;43.084;25.616;2023-03-05T16:27:10;12.82;;;5.20;;
41885;SDS011;27567;43.084;25.616;2023-03-05T16:29:54;14.45;;;5.75;;
41885;SDS011;27567;43.084;25.616;2023-03-05T16:32:38;14.80;;;5.97;;
41885;SDS011;27567;43.084;25.616;2023-03-05T16:35:22;17.75;;;5.53;;
41885;SDS011;27567;43.084;25.616;2023-03-05T16:38:06;12.30;;;5.15;;
41885;SDS011;27567;43.084;25.616;2023-03-05T16:40:51;11.43;;;6.10;;
41885;SDS011;27567;43.084;25.616;2023-03-05T16:43:35;11.18;;;4.90;;
41885;SDS011;27567;43.084;25.616;2023-03-05T16:46:19;11.15;;;5.57;;
41885;SDS011;27567;43.084;25.616;2023-03-05T16:49:03;14.05;;;5.85;;
41885;SDS011;27567;43.084;25.616;2023-03-05T16:51:48;11.20;;;4.85;;
41885;SDS011;27567;43.084;25.616;2023-03-05T16:54:32;12.93;;;5.63;;
41885;SDS011;27567;43.084;25.616;2023-03-05T16:57:17;18.33;;;6.93;;
41885;SDS011;27567;43.084;25.616;2023-03-05T17:00:01;10.32;;;5.43;;
41885;SDS011;27567;43.084;25.616;2023-03-05T17:02:47;10.35;;;5.43;;
41885;SDS011;27567;43.084;25.616;2023-03-05T17:05:31;16.23;;;6.47;;
41885;SDS011;27567;43.084;25.616;2023-03-05T17:08:17;14.18;;;5.93;;
41885;SDS011;27567;43.084;25.616;2023-03-05T17:11:01;12.38;;;6.10;;
41885;SDS011;27567;43.084;25.616;2023-03-05T17:13:45;11.70;;;6.05;;